sensor_id;sensor_type;location;lat;lon;timestamp;temperature;humidity
3994;DHT22;2011;48.238;13.948;2023-07-29T00:00:20;19.50;99.90
3994;DHT22;2011;48.238;13.948;2023-07-29T00:02:47;19.50;99.90
3994;DHT22;2011;48.238;13.948;2023-07-29T00:05:16;19.50;99.90
3994;DHT22;2011;48.238;13.948;2023-07-29T00:07:43;19.50;99.90
3994;DHT22;2011;48.238;13.948;2023-07-29T00:10:11;19.50;99.90
3994;DHT22;2011;48.238;13.948;2023-07-29T00:12:38;19.50;99.90
3994;DHT22;2011;48.238;13.948;2023-07-29T00:15:07;19.50;99.90
3994;DHT22;2011;48.238;13.948;2023-07-29T00:17:34;19.50;99.90
3994;DHT22;2011;48.238;13.948;2023-07-29T00:20:02;19.50;99.90
3994;DHT22;2011;48.238;13.948;2023-07-29T00:22:32;19.50;99.90
3994;DHT22;2011;48.238;13.948;2023-07-29T00:25:00;19.50;99.90
3994;DHT22;2011;48.238;13.948;2023-07-29T00:27:27;19.50;99.90
3994;DHT22;2011;48.238;13.948;2023-07-29T00:29:54;19.50;99.90
3994;DHT22;2011;48.238;13.948;2023-07-29T00:32:22;19.50;99.90
3994;DHT22;2011;48.238;13.948;2023-07-29T00:34:49;19.50;99.90
3994;DHT22;2011;48.238;13.948;2023-07-29T00:37:17;19.50;99.90
3994;DHT22;2011;48.238;13.948;2023-07-29T00:39:46;19.50;99.90
3994;DHT22;2011;48.238;13.948;2023-07-29T00:42:13;19.50;99.90
3994;DHT22;2011;48.238;13.948;2023-07-29T00:44:40;19.50;99.90
3994;DHT22;2011;48.238;13.948;2023-07-29T00:47:08;19.50;99.90
3994;DHT22;2011;48.238;13.948;2023-07-29T00:49:35;19.50;99.90
3994;DHT22;2011;48.238;13.948;2023-07-29T00:52:03;19.40;99.90
3994;DHT22;2011;48.238;13.948;2023-07-29T00:54:30;19.40;99.90
3994;DHT22;2011;48.238;13.948;2023-07-29T00:56:59;19.40;99.90
3994;DHT22;2011;48.238;13.948;2023-07-29T00:59:27;19.40;99.90
3994;DHT22;2011;48.238;13.948;2023-07-29T01:01:56;19.40;99.90
3994;DHT22;2011;48.238;13.948;2023-07-29T01:04:24;19.40;99.90
3994;DHT22;2011;48.238;13.948;2023-07-29T01:06:58;19.30;99.90
3994;DHT22;2011;48.238;13.948;2023-07-29T01:09:33;19.30;99.90
3994;DHT22;2011;48.238;13.948;2023-07-29T01:12:08;19.30;99.90
3994;DHT22;2011;48.238;13.948;2023-07-29T01:14:44;19.30;99.90
3994;DHT22;2011;48.238;13.948;2023-07-29T01:17:15;19.20;99.90
3994;DHT22;2011;48.238;13.948;2023-07-29T01:19:58;19.20;99.90
3994;DHT22;2011;48.238;13.948;2023-07-29T01:22:27;19.20;99.90
3994;DHT22;2011;48.238;13.948;2023-07-29T01:24:58;19.20;99.90
3994;DHT22;2011;48.238;13.948;2023-07-29T01:27:25;19.20;99.90
3994;DHT22;2011;48.238;13.948;2023-07-29T01:29:53;19.20;99.90
3994;DHT22;2011;48.238;13.948;2023-07-29T01:32:26;19.20;99.90
3994;DHT22;2011;48.238;13.948;2023-07-29T01:35:00;19.30;99.90
3994;DHT22;2011;48.238;13.948;2023-07-29T01:37:33;19.30;99.90
3994;DHT22;2011;48.238;13.948;2023-07-29T01:40:04;19.30;99.90
3994;DHT22;2011;48.238;13.948;2023-07-29T01:42:32;19.20;99.90
3994;DHT22;2011;48.238;13.948;2023-07-29T01:45:00;19.20;99.90
3994;DHT22;2011;48.238;13.948;2023-07-29T01:47:27;19.10;99.90
3994;DHT22;2011;48.238;13.948;2023-07-29T01:49:56;19.10;99.90
3994;DHT22;2011;48.238;13.948;2023-07-29T01:52:23;19.10;99.90
3994;DHT22;2011;48.238;13.948;2023-07-29T01:54:51;19.10;99.90
3994;DHT22;2011;48.238;13.948;2023-07-29T01:57:20;19.00;99.90
3994;DHT22;2011;48.238;13.948;2023-07-29T01:59:47;19.00;99.90
3994;DHT22;2011;48.238;13.948;2023-07-29T02:02:14;18.90;99.90
3994;DHT22;2011;48.238;13.948;2023-07-29T02:04:41;18.90;99.90
3994;DHT22;2011;48.238;13.948;2023-07-29T02:07:09;18.80;99.90
3994;DHT22;2011;48.238;13.948;2023-07-29T02:09:36;18.80;99.90
3994;DHT22;2011;48.238;13.948;2023-07-29T02:12:04;18.80;99.90
3994;DHT22;2011;48.238;13.948;2023-07-29T02:14:34;18.80;99.90
3994;DHT22;2011;48.238;13.948;2023-07-29T02:17:02;18.80;99.90
3994;DHT22;2011;48.238;13.948;2023-07-29T02:19:29;18.80;99.90
3994;DHT22;2011;48.238;13.948;2023-07-29T02:21:56;18.80;99.90
3994;DHT22;2011;48.238;13.948;2023-07-29T02:24:24;18.80;99.90
3994;DHT22;2011;48.238;13.948;2023-07-29T02:26:51;18.80;99.90
3994;DHT22;2011;48.238;13.948;2023-07-29T02:29:18;18.80;99.90
3994;DHT22;2011;48.238;13.948;2023-07-29T02:31:47;18.80;99.90
3994;DHT22;2011;48.238;13.948;2023-07-29T02:34:14;18.80;99.90
3994;DHT22;2011;48.238;13.948;2023-07-29T02:36:42;18.80;99.90
3994;DHT22;2011;48.238;13.948;2023-07-29T02:39:09;18.80;99.90
3994;DHT22;2011;48.238;13.948;2023-07-29T02:41:36;18.80;99.90
3994;DHT22;2011;48.238;13.948;2023-07-29T02:44:05;18.80;99.90
3994;DHT22;2011;48.238;13.948;2023-07-29T02:46:32;18.80;99.90
3994;DHT22;2011;48.238;13.948;2023-07-29T02:49:02;18.80;99.90
3994;DHT22;2011;48.238;13.948;2023-07-29T02:51:30;18.70;99.90
3994;DHT22;2011;48.238;13.948;2023-07-29T02:53:57;18.80;99.90
3994;DHT22;2011;48.238;13.948;2023-07-29T02:56:25;18.70;99.90
3994;DHT22;2011;48.238;13.948;2023-07-29T02:58:52;18.70;99.90
3994;DHT22;2011;48.238;13.948;2023-07-29T03:01:20;18.70;99.90
3994;DHT22;2011;48.238;13.948;2023-07-29T03:03:47;18.70;99.90
3994;DHT22;2011;48.238;13.948;2023-07-29T03:06:16;18.70;99.90
3994;DHT22;2011;48.238;13.948;2023-07-29T03:08:43;18.60;99.90
3994;DHT22;2011;48.238;13.948;2023-07-29T03:11:13;18.60;99.90
3994;DHT22;2011;48.238;13.948;2023-07-29T03:13:41;18.60;99.90
3994;DHT22;2011;48.238;13.948;2023-07-29T03:16:10;18.60;99.90
3994;DHT22;2011;48.238;13.948;2023-07-29T03:18:38;18.60;99.90
3994;DHT22;2011;48.238;13.948;2023-07-29T03:21:05;18.60;99.90
3994;DHT22;2011;48.238;13.948;2023-07-29T03:23:34;18.60;99.90
3994;DHT22;2011;48.238;13.948;2023-07-29T03:26:02;18.60;99.90
3994;DHT22;2011;48.238;13.948;2023-07-29T03:28:37;18.60;99.90
3994;DHT22;2011;48.238;13.948;2023-07-29T03:31:05;18.50;99.90
3994;DHT22;2011;48.238;13.948;2023-07-29T03:33:32;18.50;99.90
3994;DHT22;2011;48.238;13.948;2023-07-29T03:35:59;18.40;99.90
3994;DHT22;2011;48.238;13.948;2023-07-29T03:38:27;18.40;99.90
3994;DHT22;2011;48.238;13.948;2023-07-29T03:40:56;18.40;99.90
3994;DHT22;2011;48.238;13.948;2023-07-29T03:43:24;18.40;99.90
3994;DHT22;2011;48.238;13.948;2023-07-29T03:45:51;18.40;99.90
3994;DHT22;2011;48.238;13.948;2023-07-29T03:48:18;18.40;99.90
3994;DHT22;2011;48.238;13.948;2023-07-29T03:50:45;18.40;99.90
3994;DHT22;2011;48.238;13.948;2023-07-29T03:53:13;18.40;99.90
3994;DHT22;2011;48.238;13.948;2023-07-29T03:55:41;18.50;99.90
3994;DHT22;2011;48.238;13.948;2023-07-29T03:58:09;18.50;99.90
3994;DHT22;2011;48.238;13.948;2023-07-29T04:00:37;18.50;99.90
3994;DHT22;2011;48.238;13.948;2023-07-29T04:03:04;18.50;99.90
3994;DHT22;2011;48.238;13.948;2023-07-29T04:05:31;18.50;99.90
3994;DHT22;2011;48.238;13.948;2023-07-29T04:07:59;18.50;99.90
3994;DHT22;2011;48.238;13.948;2023-07-29T04:10:26;18.60;99.90
3994;DHT22;2011;48.238;13.948;2023-07-29T04:12:54;18.60;99.90
3994;DHT22;2011;48.238;13.948;2023-07-29T04:15:22;18.60;99.90
3994;DHT22;2011;48.238;13.948;2023-07-29T04:17:50;18.60;99.90
3994;DHT22;2011;48.238;13.948;2023-07-29T04:20:17;18.60;99.90
3994;DHT22;2011;48.238;13.948;2023-07-29T04:22:45;18.60;99.90
3994;DHT22;2011;48.238;13.948;2023-07-29T04:25:12;18.60;99.90
3994;DHT22;2011;48.238;13.948;2023-07-29T04:27:39;18.60;99.90
3994;DHT22;2011;48.238;13.948;2023-07-29T04:30:08;18.60;99.90
3994;DHT22;2011;48.238;13.948;2023-07-29T04:32:37;18.60;99.90
3994;DHT22;2011;48.238;13.948;2023-07-29T04:35:05;18.60;99.90
3994;DHT22;2011;48.238;13.948;2023-07-29T04:37:33;18.60;99.90
3994;DHT22;2011;48.238;13.948;2023-07-29T04:40:00;18.60;99.90
3994;DHT22;2011;48.238;13.948;2023-07-29T04:42:28;18.60;99.90
3994;DHT22;2011;48.238;13.948;2023-07-29T04:44:55;18.50;99.90
3994;DHT22;2011;48.238;13.948;2023-07-29T04:47:22;18.50;99.90
3994;DHT22;2011;48.238;13.948;2023-07-29T04:49:51;18.40;99.90
3994;DHT22;2011;48.238;13.948;2023-07-29T04:52:18;18.40;99.90
3994;DHT22;2011;48.238;13.948;2023-07-29T04:54:46;18.40;99.90
3994;DHT22;2011;48.238;13.948;2023-07-29T04:57:13;18.50;99.90
3994;DHT22;2011;48.238;13.948;2023-07-29T04:59:41;18.50;99.90
3994;DHT22;2011;48.238;13.948;2023-07-29T05:02:08;18.60;99.90
3994;DHT22;2011;48.238;13.948;2023-07-29T05:04:36;18.60;99.90
3994;DHT22;2011;48.238;13.948;2023-07-29T05:07:05;18.70;99.90
3994;DHT22;2011;48.238;13.948;2023-07-29T05:09:32;18.80;99.90
3994;DHT22;2011;48.238;13.948;2023-07-29T05:12:00;18.90;99.90
3994;DHT22;2011;48.238;13.948;2023-07-29T05:14:28;19.00;99.90
3994;DHT22;2011;48.238;13.948;2023-07-29T05:16:55;19.00;99.90
3994;DHT22;2011;48.238;13.948;2023-07-29T05:19:22;19.00;99.90
3994;DHT22;2011;48.238;13.948;2023-07-29T05:21:50;19.20;99.90
3994;DHT22;2011;48.238;13.948;2023-07-29T05:24:18;19.20;99.90
3994;DHT22;2011;48.238;13.948;2023-07-29T05:26:46;19.40;99.90
3994;DHT22;2011;48.238;13.948;2023-07-29T05:29:13;19.50;99.90
3994;DHT22;2011;48.238;13.948;2023-07-29T05:31:41;19.70;99.90
3994;DHT22;2011;48.238;13.948;2023-07-29T05:34:08;19.80;99.90
3994;DHT22;2011;48.238;13.948;2023-07-29T05:36:35;19.90;99.90
3994;DHT22;2011;48.238;13.948;2023-07-29T05:39:03;20.00;99.90
3994;DHT22;2011;48.238;13.948;2023-07-29T05:41:32;20.10;99.90
3994;DHT22;2011;48.238;13.948;2023-07-29T05:43:59;20.20;99.90
3994;DHT22;2011;48.238;13.948;2023-07-29T05:46:26;20.30;99.90
3994;DHT22;2011;48.238;13.948;2023-07-29T05:48:54;20.40;99.90
3994;DHT22;2011;48.238;13.948;2023-07-29T05:51:21;20.50;99.90
3994;DHT22;2011;48.238;13.948;2023-07-29T05:54:02;20.50;99.90
3994;DHT22;2011;48.238;13.948;2023-07-29T05:56:38;20.60;99.90
3994;DHT22;2011;48.238;13.948;2023-07-29T05:59:18;20.80;99.90
3994;DHT22;2011;48.238;13.948;2023-07-29T06:01:54;20.90;99.90
3994;DHT22;2011;48.238;13.948;2023-07-29T06:04:29;21.00;99.90
3994;DHT22;2011;48.238;13.948;2023-07-29T06:06:59;21.00;99.90
3994;DHT22;2011;48.238;13.948;2023-07-29T06:09:31;21.10;99.90
3994;DHT22;2011;48.238;13.948;2023-07-29T06:12:08;21.20;99.90
3994;DHT22;2011;48.238;13.948;2023-07-29T06:14:36;21.30;99.90
3994;DHT22;2011;48.238;13.948;2023-07-29T06:17:03;21.40;99.90
3994;DHT22;2011;48.238;13.948;2023-07-29T06:19:32;21.50;99.90
3994;DHT22;2011;48.238;13.948;2023-07-29T06:22:00;21.60;99.90
3994;DHT22;2011;48.238;13.948;2023-07-29T06:24:28;21.70;99.90
3994;DHT22;2011;48.238;13.948;2023-07-29T06:26:55;21.80;99.90
3994;DHT22;2011;48.238;13.948;2023-07-29T06:29:24;21.90;99.90
3994;DHT22;2011;48.238;13.948;2023-07-29T06:31:52;22.00;99.90
3994;DHT22;2011;48.238;13.948;2023-07-29T06:34:20;22.10;99.90
3994;DHT22;2011;48.238;13.948;2023-07-29T06:36:48;22.20;99.90
3994;DHT22;2011;48.238;13.948;2023-07-29T06:39:15;22.20;99.90
3994;DHT22;2011;48.238;13.948;2023-07-29T06:41:43;22.30;99.90
3994;DHT22;2011;48.238;13.948;2023-07-29T06:44:10;22.30;99.90
3994;DHT22;2011;48.238;13.948;2023-07-29T06:46:39;22.40;99.90
3994;DHT22;2011;48.238;13.948;2023-07-29T06:49:07;22.40;99.90
3994;DHT22;2011;48.238;13.948;2023-07-29T06:51:34;22.60;99.90
3994;DHT22;2011;48.238;13.948;2023-07-29T06:54:02;22.70;99.90
3994;DHT22;2011;48.238;13.948;2023-07-29T06:56:29;22.70;99.90
3994;DHT22;2011;48.238;13.948;2023-07-29T06:58:57;22.80;99.90
3994;DHT22;2011;48.238;13.948;2023-07-29T07:01:24;22.90;99.90
3994;DHT22;2011;48.238;13.948;2023-07-29T07:03:53;23.00;99.90
3994;DHT22;2011;48.238;13.948;2023-07-29T07:06:24;23.10;99.90
3994;DHT22;2011;48.238;13.948;2023-07-29T07:08:51;23.20;99.90
3994;DHT22;2011;48.238;13.948;2023-07-29T07:11:19;23.30;99.90
3994;DHT22;2011;48.238;13.948;2023-07-29T07:13:46;23.50;99.90
3994;DHT22;2011;48.238;13.948;2023-07-29T07:16:14;23.30;99.90
3994;DHT22;2011;48.238;13.948;2023-07-29T07:18:41;23.10;99.90
3994;DHT22;2011;48.238;13.948;2023-07-29T07:21:10;23.20;99.90
3994;DHT22;2011;48.238;13.948;2023-07-29T07:23:39;23.20;99.90
3994;DHT22;2011;48.238;13.948;2023-07-29T07:26:06;23.30;99.90
3994;DHT22;2011;48.238;13.948;2023-07-29T07:28:34;23.40;99.90
3994;DHT22;2011;48.238;13.948;2023-07-29T07:31:01;23.50;99.90
3994;DHT22;2011;48.238;13.948;2023-07-29T07:33:29;23.50;99.90
3994;DHT22;2011;48.238;13.948;2023-07-29T07:35:56;23.60;99.90
3994;DHT22;2011;48.238;13.948;2023-07-29T07:38:25;23.70;99.90
3994;DHT22;2011;48.238;13.948;2023-07-29T07:40:54;23.80;99.90
3994;DHT22;2011;48.238;13.948;2023-07-29T07:43:22;23.80;99.90
3994;DHT22;2011;48.238;13.948;2023-07-29T07:45:50;23.70;99.90
3994;DHT22;2011;48.238;13.948;2023-07-29T07:48:18;23.60;99.90
3994;DHT22;2011;48.238;13.948;2023-07-29T07:50:46;23.60;99.90
3994;DHT22;2011;48.238;13.948;2023-07-29T07:53:13;23.60;99.90
3994;DHT22;2011;48.238;13.948;2023-07-29T07:55:42;23.50;99.90
3994;DHT22;2011;48.238;13.948;2023-07-29T07:58:10;23.50;99.90
3994;DHT22;2011;48.238;13.948;2023-07-29T08:00:37;23.60;99.90
3994;DHT22;2011;48.238;13.948;2023-07-29T08:03:05;23.70;99.90
3994;DHT22;2011;48.238;13.948;2023-07-29T08:05:32;23.70;99.90
3994;DHT22;2011;48.238;13.948;2023-07-29T08:08:00;23.80;99.90
3994;DHT22;2011;48.238;13.948;2023-07-29T08:10:27;24.00;99.90
3994;DHT22;2011;48.238;13.948;2023-07-29T08:12:56;24.40;99.90
3994;DHT22;2011;48.238;13.948;2023-07-29T08:15:25;24.60;99.90
3994;DHT22;2011;48.238;13.948;2023-07-29T08:17:52;24.60;99.90
3994;DHT22;2011;48.238;13.948;2023-07-29T08:20:20;24.40;99.90
3994;DHT22;2011;48.238;13.948;2023-07-29T08:22:48;24.60;99.90
3994;DHT22;2011;48.238;13.948;2023-07-29T08:25:16;24.80;99.90
3994;DHT22;2011;48.238;13.948;2023-07-29T08:27:44;24.80;99.90
3994;DHT22;2011;48.238;13.948;2023-07-29T08:30:13;24.90;99.90
3994;DHT22;2011;48.238;13.948;2023-07-29T08:32:42;24.80;99.90
3994;DHT22;2011;48.238;13.948;2023-07-29T08:35:10;24.80;99.90
3994;DHT22;2011;48.238;13.948;2023-07-29T08:37:39;24.80;99.90
3994;DHT22;2011;48.238;13.948;2023-07-29T08:40:08;24.90;99.90
3994;DHT22;2011;48.238;13.948;2023-07-29T08:42:37;25.00;99.90
3994;DHT22;2011;48.238;13.948;2023-07-29T08:45:07;25.10;99.90
3994;DHT22;2011;48.238;13.948;2023-07-29T08:47:37;25.30;99.90
3994;DHT22;2011;48.238;13.948;2023-07-29T08:50:06;25.40;99.90
3994;DHT22;2011;48.238;13.948;2023-07-29T08:52:35;25.60;99.90
3994;DHT22;2011;48.238;13.948;2023-07-29T08:55:05;25.50;99.90
3994;DHT22;2011;48.238;13.948;2023-07-29T08:57:33;25.50;99.90
3994;DHT22;2011;48.238;13.948;2023-07-29T09:00:02;25.50;99.90
3994;DHT22;2011;48.238;13.948;2023-07-29T09:02:29;25.40;99.90
3994;DHT22;2011;48.238;13.948;2023-07-29T09:04:58;25.50;99.90
3994;DHT22;2011;48.238;13.948;2023-07-29T09:07:26;25.60;99.90
3994;DHT22;2011;48.238;13.948;2023-07-29T09:09:56;25.50;99.90
3994;DHT22;2011;48.238;13.948;2023-07-29T09:12:25;25.60;99.90
3994;DHT22;2011;48.238;13.948;2023-07-29T09:14:52;25.90;99.90
3994;DHT22;2011;48.238;13.948;2023-07-29T09:17:20;25.80;99.90
3994;DHT22;2011;48.238;13.948;2023-07-29T09:19:48;25.80;99.90
3994;DHT22;2011;48.238;13.948;2023-07-29T09:22:20;25.90;99.90
3994;DHT22;2011;48.238;13.948;2023-07-29T09:24:48;26.00;99.90
3994;DHT22;2011;48.238;13.948;2023-07-29T09:27:25;26.10;99.90
3994;DHT22;2011;48.238;13.948;2023-07-29T09:29:58;26.30;99.90
3994;DHT22;2011;48.238;13.948;2023-07-29T09:32:29;25.90;99.90
3994;DHT22;2011;48.238;13.948;2023-07-29T09:34:57;25.40;99.90
3994;DHT22;2011;48.238;13.948;2023-07-29T09:37:25;25.00;99.90
3994;DHT22;2011;48.238;13.948;2023-07-29T09:39:53;24.60;99.90
3994;DHT22;2011;48.238;13.948;2023-07-29T09:42:21;24.30;99.90
3994;DHT22;2011;48.238;13.948;2023-07-29T09:45:09;23.90;99.90
3994;DHT22;2011;48.238;13.948;2023-07-29T09:47:37;23.60;99.90
3994;DHT22;2011;48.238;13.948;2023-07-29T09:50:05;23.60;99.90
3994;DHT22;2011;48.238;13.948;2023-07-29T09:52:34;23.60;99.90
3994;DHT22;2011;48.238;13.948;2023-07-29T09:55:01;23.50;99.90
3994;DHT22;2011;48.238;13.948;2023-07-29T09:57:31;23.40;99.90
3994;DHT22;2011;48.238;13.948;2023-07-29T09:59:58;23.40;99.90
3994;DHT22;2011;48.238;13.948;2023-07-29T10:02:27;23.40;99.90
3994;DHT22;2011;48.238;13.948;2023-07-29T10:04:56;23.40;99.90
3994;DHT22;2011;48.238;13.948;2023-07-29T10:07:24;23.30;99.90
3994;DHT22;2011;48.238;13.948;2023-07-29T10:09:54;23.20;99.90
3994;DHT22;2011;48.238;13.948;2023-07-29T10:12:23;23.10;99.90
3994;DHT22;2011;48.238;13.948;2023-07-29T10:14:52;23.10;99.90
3994;DHT22;2011;48.238;13.948;2023-07-29T10:17:21;23.00;99.90
3994;DHT22;2011;48.238;13.948;2023-07-29T10:19:49;23.10;99.90
3994;DHT22;2011;48.238;13.948;2023-07-29T10:22:20;23.00;99.90
3994;DHT22;2011;48.238;13.948;2023-07-29T10:24:49;23.00;99.90
3994;DHT22;2011;48.238;13.948;2023-07-29T10:27:19;23.00;99.90
3994;DHT22;2011;48.238;13.948;2023-07-29T10:29:48;23.00;99.90
3994;DHT22;2011;48.238;13.948;2023-07-29T10:32:16;23.00;99.90
3994;DHT22;2011;48.238;13.948;2023-07-29T10:34:43;22.90;99.90
3994;DHT22;2011;48.238;13.948;2023-07-29T10:37:11;23.00;99.90
3994;DHT22;2011;48.238;13.948;2023-07-29T10:39:39;23.00;99.90
3994;DHT22;2011;48.238;13.948;2023-07-29T10:42:08;23.20;99.90
3994;DHT22;2011;48.238;13.948;2023-07-29T10:44:50;23.30;99.90
3994;DHT22;2011;48.238;13.948;2023-07-29T10:47:20;23.50;99.90
3994;DHT22;2011;48.238;13.948;2023-07-29T10:49:50;23.70;99.90
3994;DHT22;2011;48.238;13.948;2023-07-29T10:52:29;23.90;99.90
3994;DHT22;2011;48.238;13.948;2023-07-29T10:54:57;24.20;99.90
3994;DHT22;2011;48.238;13.948;2023-07-29T10:57:32;24.30;99.90
3994;DHT22;2011;48.238;13.948;2023-07-29T11:00:02;24.40;99.90
3994;DHT22;2011;48.238;13.948;2023-07-29T11:02:32;24.40;99.90
3994;DHT22;2011;48.238;13.948;2023-07-29T11:05:04;24.50;99.90
3994;DHT22;2011;48.238;13.948;2023-07-29T11:07:31;24.70;99.90
3994;DHT22;2011;48.238;13.948;2023-07-29T11:10:12;24.90;99.90
3994;DHT22;2011;48.238;13.948;2023-07-29T11:12:46;25.10;99.90
3994;DHT22;2011;48.238;13.948;2023-07-29T11:15:19;25.10;99.90
3994;DHT22;2011;48.238;13.948;2023-07-29T11:17:49;25.20;99.90
3994;DHT22;2011;48.238;13.948;2023-07-29T11:20:18;25.20;99.90
3994;DHT22;2011;48.238;13.948;2023-07-29T11:22:45;25.20;99.90
3994;DHT22;2011;48.238;13.948;2023-07-29T11:25:14;25.30;99.90
3994;DHT22;2011;48.238;13.948;2023-07-29T11:27:43;25.40;99.90
3994;DHT22;2011;48.238;13.948;2023-07-29T11:30:11;25.40;99.90
3994;DHT22;2011;48.238;13.948;2023-07-29T11:32:42;25.50;99.90
3994;DHT22;2011;48.238;13.948;2023-07-29T11:35:11;25.70;99.90
3994;DHT22;2011;48.238;13.948;2023-07-29T11:37:41;26.00;99.90
3994;DHT22;2011;48.238;13.948;2023-07-29T11:40:09;26.00;99.90
3994;DHT22;2011;48.238;13.948;2023-07-29T11:42:37;26.10;99.90
3994;DHT22;2011;48.238;13.948;2023-07-29T11:45:06;26.20;99.90
3994;DHT22;2011;48.238;13.948;2023-07-29T11:47:34;26.30;99.90
3994;DHT22;2011;48.238;13.948;2023-07-29T11:50:05;26.20;99.90
3994;DHT22;2011;48.238;13.948;2023-07-29T11:52:35;26.20;99.90
3994;DHT22;2011;48.238;13.948;2023-07-29T11:55:04;26.40;99.90
3994;DHT22;2011;48.238;13.948;2023-07-29T11:57:34;26.60;99.90
3994;DHT22;2011;48.238;13.948;2023-07-29T12:00:03;26.70;99.90
3994;DHT22;2011;48.238;13.948;2023-07-29T12:02:32;26.80;99.90
3994;DHT22;2011;48.238;13.948;2023-07-29T12:05:00;26.90;99.90
3994;DHT22;2011;48.238;13.948;2023-07-29T12:07:29;27.20;99.90
3994;DHT22;2011;48.238;13.948;2023-07-29T12:09:57;27.40;99.60
3994;DHT22;2011;48.238;13.948;2023-07-29T12:12:24;27.50;98.70
3994;DHT22;2011;48.238;13.948;2023-07-29T12:14:54;27.70;99.10
3994;DHT22;2011;48.238;13.948;2023-07-29T12:17:22;27.80;99.30
3994;DHT22;2011;48.238;13.948;2023-07-29T12:19:49;27.90;99.00
3994;DHT22;2011;48.238;13.948;2023-07-29T12:22:21;28.10;99.30
3994;DHT22;2011;48.238;13.948;2023-07-29T12:24:51;28.30;98.90
3994;DHT22;2011;48.238;13.948;2023-07-29T12:27:22;28.30;96.80
3994;DHT22;2011;48.238;13.948;2023-07-29T12:29:51;28.50;97.70
3994;DHT22;2011;48.238;13.948;2023-07-29T12:32:19;28.70;97.60
3994;DHT22;2011;48.238;13.948;2023-07-29T12:34:47;28.90;96.40
3994;DHT22;2011;48.238;13.948;2023-07-29T12:37:14;28.80;95.70
3994;DHT22;2011;48.238;13.948;2023-07-29T12:39:42;28.70;95.10
3994;DHT22;2011;48.238;13.948;2023-07-29T12:42:11;28.60;95.50
3994;DHT22;2011;48.238;13.948;2023-07-29T12:44:38;28.60;96.20
3994;DHT22;2011;48.238;13.948;2023-07-29T12:47:07;28.50;96.50
3994;DHT22;2011;48.238;13.948;2023-07-29T12:49:37;28.60;95.80
3994;DHT22;2011;48.238;13.948;2023-07-29T12:52:05;28.60;94.80
3994;DHT22;2011;48.238;13.948;2023-07-29T12:54:33;28.40;94.90
3994;DHT22;2011;48.238;13.948;2023-07-29T12:57:00;28.10;93.90
3994;DHT22;2011;48.238;13.948;2023-07-29T12:59:29;27.90;95.00
3994;DHT22;2011;48.238;13.948;2023-07-29T13:01:57;27.70;95.10
3994;DHT22;2011;48.238;13.948;2023-07-29T13:04:25;27.60;94.50
3994;DHT22;2011;48.238;13.948;2023-07-29T13:06:52;27.40;94.50
3994;DHT22;2011;48.238;13.948;2023-07-29T13:09:20;27.10;94.90
3994;DHT22;2011;48.238;13.948;2023-07-29T13:11:47;27.00;95.00
3994;DHT22;2011;48.238;13.948;2023-07-29T13:14:15;26.80;95.50
3994;DHT22;2011;48.238;13.948;2023-07-29T13:16:44;26.50;95.10
3994;DHT22;2011;48.238;13.948;2023-07-29T13:19:11;26.20;95.70
3994;DHT22;2011;48.238;13.948;2023-07-29T13:21:38;25.90;95.70
3994;DHT22;2011;48.238;13.948;2023-07-29T13:24:07;25.80;97.10
3994;DHT22;2011;48.238;13.948;2023-07-29T13:26:34;25.40;97.40
3994;DHT22;2011;48.238;13.948;2023-07-29T13:29:01;24.10;96.70
3994;DHT22;2011;48.238;13.948;2023-07-29T13:31:30;23.00;99.90
3994;DHT22;2011;48.238;13.948;2023-07-29T13:33:59;22.30;99.90
3994;DHT22;2011;48.238;13.948;2023-07-29T13:36:26;22.20;99.90
3994;DHT22;2011;48.238;13.948;2023-07-29T13:38:54;22.40;99.90
3994;DHT22;2011;48.238;13.948;2023-07-29T13:41:22;22.60;99.90
3994;DHT22;2011;48.238;13.948;2023-07-29T13:43:49;22.60;99.90
3994;DHT22;2011;48.238;13.948;2023-07-29T13:46:17;22.60;99.90
3994;DHT22;2011;48.238;13.948;2023-07-29T13:48:46;22.70;99.90
3994;DHT22;2011;48.238;13.948;2023-07-29T13:51:16;22.70;99.90
3994;DHT22;2011;48.238;13.948;2023-07-29T13:53:43;22.60;99.90
3994;DHT22;2011;48.238;13.948;2023-07-29T13:56:11;22.60;99.90
3994;DHT22;2011;48.238;13.948;2023-07-29T13:58:40;22.80;99.90
3994;DHT22;2011;48.238;13.948;2023-07-29T14:01:08;22.90;99.90
3994;DHT22;2011;48.238;13.948;2023-07-29T14:03:35;23.10;99.90
3994;DHT22;2011;48.238;13.948;2023-07-29T14:06:03;23.30;99.90
3994;DHT22;2011;48.238;13.948;2023-07-29T14:08:32;23.40;99.90
3994;DHT22;2011;48.238;13.948;2023-07-29T14:11:01;23.60;99.90
3994;DHT22;2011;48.238;13.948;2023-07-29T14:13:28;23.70;99.90
3994;DHT22;2011;48.238;13.948;2023-07-29T14:15:56;24.10;99.90
3994;DHT22;2011;48.238;13.948;2023-07-29T14:18:23;24.30;99.90
3994;DHT22;2011;48.238;13.948;2023-07-29T14:20:51;24.60;99.90
3994;DHT22;2011;48.238;13.948;2023-07-29T14:23:19;24.90;99.90
3994;DHT22;2011;48.238;13.948;2023-07-29T14:25:48;25.20;99.90
3994;DHT22;2011;48.238;13.948;2023-07-29T14:28:15;25.40;99.90
3994;DHT22;2011;48.238;13.948;2023-07-29T14:30:43;25.50;99.90
3994;DHT22;2011;48.238;13.948;2023-07-29T14:33:10;25.70;99.90
3994;DHT22;2011;48.238;13.948;2023-07-29T14:35:39;25.90;99.90
3994;DHT22;2011;48.238;13.948;2023-07-29T14:38:06;26.10;99.90
3994;DHT22;2011;48.238;13.948;2023-07-29T14:40:34;26.20;99.90
3994;DHT22;2011;48.238;13.948;2023-07-29T14:43:03;26.30;99.90
3994;DHT22;2011;48.238;13.948;2023-07-29T14:45:30;26.40;99.90
3994;DHT22;2011;48.238;13.948;2023-07-29T14:47:58;26.60;99.90
3994;DHT22;2011;48.238;13.948;2023-07-29T14:50:25;26.80;99.90
3994;DHT22;2011;48.238;13.948;2023-07-29T14:52:53;26.80;99.90
3994;DHT22;2011;48.238;13.948;2023-07-29T14:55:20;26.90;99.90
3994;DHT22;2011;48.238;13.948;2023-07-29T14:57:48;26.80;99.90
3994;DHT22;2011;48.238;13.948;2023-07-29T15:00:17;26.70;99.90
3994;DHT22;2011;48.238;13.948;2023-07-29T15:02:44;26.40;99.90
3994;DHT22;2011;48.238;13.948;2023-07-29T15:05:12;26.10;99.90
3994;DHT22;2011;48.238;13.948;2023-07-29T15:07:39;26.40;99.90
3994;DHT22;2011;48.238;13.948;2023-07-29T15:10:07;26.20;99.90
3994;DHT22;2011;48.238;13.948;2023-07-29T15:12:34;26.00;99.90
3994;DHT22;2011;48.238;13.948;2023-07-29T15:15:02;25.80;99.90
3994;DHT22;2011;48.238;13.948;2023-07-29T15:17:30;25.70;99.90
3994;DHT22;2011;48.238;13.948;2023-07-29T15:19:58;25.60;99.90
3994;DHT22;2011;48.238;13.948;2023-07-29T15:22:25;25.50;99.90
3994;DHT22;2011;48.238;13.948;2023-07-29T15:24:52;25.40;99.90
3994;DHT22;2011;48.238;13.948;2023-07-29T15:27:20;25.40;99.90
3994;DHT22;2011;48.238;13.948;2023-07-29T15:29:48;25.40;99.90
3994;DHT22;2011;48.238;13.948;2023-07-29T15:32:15;25.40;99.90
3994;DHT22;2011;48.238;13.948;2023-07-29T15:34:46;25.30;99.90
3994;DHT22;2011;48.238;13.948;2023-07-29T15:37:13;25.30;99.90
3994;DHT22;2011;48.238;13.948;2023-07-29T15:39:41;25.20;99.90
3994;DHT22;2011;48.238;13.948;2023-07-29T15:42:08;25.00;99.90
3994;DHT22;2011;48.238;13.948;2023-07-29T15:44:36;24.90;99.90
3994;DHT22;2011;48.238;13.948;2023-07-29T15:47:04;24.80;99.90
3994;DHT22;2011;48.238;13.948;2023-07-29T15:49:31;24.70;99.90
3994;DHT22;2011;48.238;13.948;2023-07-29T15:52:00;24.70;99.90